EGGW/LTN METAR and TAF weather

Enter ICAO airport designator
Station Type Date Time Source
EGGW METAR 2018/12/11 00:20 UTC NOAA

EGGW 110020Z AUTO 26005KT 9999 NCD 04/03 Q1027


Station Type Date Time Source
EGGW Decoded METAR 2018/12/11 00:20 UTC NOAA

Luton Airport , United Kingdom (EGGW) 51-52N 000-22W
Dec 10, 2018 - 07:20 PM EST / 2018.12.11 0020 UTC
Wind: from the W (260 degrees) at 6 MPH (5 KT):0
Visibility: greater than 7 mile(s):0
Temperature: 39 F (4 C)
Dew Point: 37 F (3 C)
Relative Humidity: 93%
Pressure (altimeter): 30.33 in. Hg (1027 hPa)
ob: EGGW 110020Z AUTO 26005KT 9999 NCD 04/03 Q1027
cycle: 0

Station Type Date Time Source
EGGW TAF 2018/12/10 18:09 UTC NOAA

TAF TAF EGGW 101657Z 1018/1118 29010KT 9999 SCT020
BECMG 1018/1020 VRB04KT
BECMG 1020/1023 7000
TEMPO 1023/1110 2000 BR PROB30
TEMPO 1102/1109 0300 FG VV///
BECMG 1110/1113 15010KT 9999 PROB30
TEMPO 1110/1112 BKN003


Example: see airport list